createdAt,value
2022-08-14T00:00:18.487Z,21.82
2022-08-14T00:01:20.029Z,21.82
2022-08-14T00:02:18.460Z,21.79
2022-08-14T00:03:18.340Z,21.82
2022-08-14T00:04:36.065Z,21.82
2022-08-14T00:05:18.242Z,21.75
2022-08-14T00:06:28.346Z,21.75
2022-08-14T00:07:18.148Z,21.78
2022-08-14T00:08:18.099Z,21.78
2022-08-14T00:09:18.046Z,21.79
2022-08-14T00:10:49.703Z,21.72
2022-08-14T00:11:17.949Z,21.82
2022-08-14T00:12:23.679Z,21.75
2022-08-14T00:13:17.853Z,21.76
2022-08-14T00:14:17.804Z,21.75
2022-08-14T00:15:17.756Z,21.66
2022-08-14T00:16:40.902Z,21.69
2022-08-14T00:17:17.659Z,21.66
2022-08-14T00:18:30.737Z,21.67
2022-08-14T00:19:19.688Z,21.66
2022-08-14T00:20:23.823Z,21.63
2022-08-14T00:21:17.462Z,21.63
2022-08-14T00:22:44.308Z,21.61
2022-08-14T00:23:17.905Z,21.57
2022-08-14T00:24:28.268Z,21.53
2022-08-14T00:25:17.269Z,21.59
2022-08-14T00:26:21.610Z,21.59
2022-08-14T00:27:17.237Z,21.51
2022-08-14T00:28:17.829Z,21.53
2022-08-14T00:29:17.074Z,21.60
2022-08-14T00:30:17.405Z,21.53
2022-08-14T00:31:16.975Z,21.54
2022-08-14T00:32:53.035Z,21.56
2022-08-14T00:33:16.975Z,21.50
2022-08-14T00:34:36.449Z,21.42
2022-08-14T00:35:16.780Z,21.39
2022-08-14T00:36:36.954Z,21.38
2022-08-14T00:37:16.683Z,21.48
2022-08-14T00:38:16.635Z,21.44
2022-08-14T00:39:18.182Z,21.42
2022-08-14T00:40:19.136Z,21.51
2022-08-14T00:41:16.490Z,21.39
2022-08-14T00:42:52.367Z,21.45
2022-08-14T00:43:16.388Z,21.34
2022-08-14T00:44:21.325Z,21.36
2022-08-14T00:45:16.289Z,21.34
2022-08-14T00:46:32.210Z,21.27
2022-08-14T00:47:16.194Z,21.29
2022-08-14T00:48:16.145Z,21.30
2022-08-14T00:49:16.095Z,21.29
2022-08-14T00:50:18.172Z,21.23
2022-08-14T00:51:15.999Z,21.17
2022-08-14T00:52:18.033Z,21.30
2022-08-14T00:53:15.898Z,21.29
2022-08-14T00:54:21.505Z,21.23
2022-08-14T00:55:15.806Z,21.24
2022-08-14T00:56:15.752Z,21.19
2022-08-14T00:57:15.703Z,21.20
2022-08-14T00:58:15.655Z,21.14
2022-08-14T00:59:16.147Z,21.14
2022-08-14T01:00:34.320Z,21.11
2022-08-14T01:01:17.017Z,21.13
2022-08-14T01:02:15.460Z,21.13
2022-08-14T01:03:15.417Z,21.11
2022-08-14T01:04:38.360Z,21.13
2022-08-14T01:05:15.314Z,21.06
2022-08-14T01:06:15.289Z,21.05
2022-08-14T01:07:15.214Z,21.13
2022-08-14T01:08:50.632Z,21.08
2022-08-14T01:09:15.113Z,21.08
2022-08-14T01:10:15.066Z,21.04
2022-08-14T01:11:15.016Z,21.05
2022-08-14T01:12:14.968Z,21.11
2022-08-14T01:13:14.918Z,21.01
2022-08-14T01:14:25.471Z,21.02
2022-08-14T01:15:14.992Z,20.98
2022-08-14T01:16:15.107Z,21.02
2022-08-14T01:17:14.731Z,20.96
2022-08-14T01:18:14.674Z,20.83
2022-08-14T01:19:14.622Z,20.99
2022-08-14T01:20:27.809Z,20.98
2022-08-14T01:21:14.527Z,20.86
2022-08-14T01:22:18.982Z,20.89
2022-08-14T01:23:16.461Z,20.83
2022-08-14T01:24:14.379Z,20.90
2022-08-14T01:25:14.329Z,20.84
2022-08-14T01:26:14.280Z,20.87
2022-08-14T01:27:14.229Z,20.87
2022-08-14T01:28:47.313Z,20.89
2022-08-14T01:29:16.184Z,20.86
2022-08-14T01:30:16.782Z,20.79
2022-08-14T01:31:14.435Z,20.99
2022-08-14T01:32:13.983Z,20.83
2022-08-14T01:33:13.934Z,20.95
2022-08-14T01:35:17.568Z,20.81
2022-08-14T01:35:20.334Z,20.80
2022-08-14T01:36:21.093Z,20.84
2022-08-14T01:37:13.738Z,20.91
2022-08-14T01:38:13.688Z,20.87
2022-08-14T01:39:13.772Z,20.84
2022-08-14T01:40:17.249Z,20.84
2022-08-14T01:41:15.027Z,20.81
2022-08-14T01:42:32.081Z,20.72
2022-08-14T01:43:13.450Z,20.71
2022-08-14T01:44:32.458Z,20.77
2022-08-14T01:45:25.222Z,20.71
2022-08-14T01:46:24.382Z,20.68
2022-08-14T01:47:21.676Z,20.76
2022-08-14T01:48:14.141Z,20.72
2022-08-14T01:49:13.238Z,20.69
2022-08-14T01:50:14.268Z,20.65
2022-08-14T01:51:20.189Z,20.72
2022-08-14T01:52:33.685Z,20.59
2022-08-14T01:53:12.947Z,20.61
2022-08-14T01:54:14.315Z,20.64
2022-08-14T01:55:12.853Z,20.62
2022-08-14T01:56:18.347Z,20.61
2022-08-14T01:57:12.748Z,20.54
2022-08-14T01:58:19.338Z,20.58
2022-08-14T01:59:18.301Z,20.62
2022-08-14T02:00:12.601Z,20.53
2022-08-14T02:01:12.597Z,20.51
2022-08-14T02:02:19.036Z,20.49
2022-08-14T02:03:12.453Z,20.46
2022-08-14T02:04:40.439Z,20.50
2022-08-14T02:05:12.356Z,20.47
2022-08-14T02:06:33.002Z,20.42
2022-08-14T02:07:15.740Z,20.47
2022-08-14T02:08:12.205Z,20.46
2022-08-14T02:09:19.345Z,20.41
2022-08-14T02:10:13.200Z,20.39
2022-08-14T02:11:12.058Z,20.42
2022-08-14T02:12:19.636Z,20.41
2022-08-14T02:13:11.956Z,20.38
2022-08-14T02:14:14.163Z,20.35
2022-08-14T02:15:11.857Z,20.30
2022-08-14T02:16:21.708Z,20.38
2022-08-14T02:17:11.757Z,20.30
2022-08-14T02:18:15.285Z,20.38
2022-08-14T02:19:11.660Z,20.34
2022-08-14T02:20:11.610Z,20.30
2022-08-14T02:21:11.560Z,20.23
2022-08-14T02:22:11.512Z,20.30
2022-08-14T02:23:11.557Z,20.25
2022-08-14T02:24:39.087Z,20.25
2022-08-14T02:25:11.361Z,20.21
2022-08-14T02:26:24.075Z,20.30
2022-08-14T02:28:23.645Z,20.28
2022-08-14T02:28:25.238Z,20.28
2022-08-14T02:29:11.170Z,20.13
2022-08-14T02:30:11.114Z,20.12
2022-08-14T02:31:11.062Z,20.24
2022-08-14T02:32:11.014Z,20.24
2022-08-14T02:33:10.963Z,20.24
2022-08-14T02:34:14.551Z,20.21
2022-08-14T02:35:10.864Z,20.18
2022-08-14T02:37:03.800Z,20.21
2022-08-14T02:37:10.846Z,20.16
2022-08-14T02:38:11.557Z,20.13
2022-08-14T02:39:10.665Z,20.15
2022-08-14T02:40:10.616Z,20.15
2022-08-14T02:41:11.207Z,20.15
2022-08-14T02:42:12.861Z,20.12
2022-08-14T02:43:10.510Z,20.18
2022-08-14T02:44:10.420Z,20.15
2022-08-14T02:45:10.365Z,20.10
2022-08-14T02:46:10.317Z,20.16
2022-08-14T02:47:14.966Z,20.06
2022-08-14T02:49:04.410Z,20.13
2022-08-14T02:49:10.166Z,20.10
2022-08-14T02:50:10.123Z,20.09
2022-08-14T02:51:10.066Z,20.09
2022-08-14T02:52:55.536Z,20.10
2022-08-14T02:53:09.966Z,20.15
2022-08-14T02:54:09.922Z,20.08
2022-08-14T02:55:09.877Z,20.06
2022-08-14T02:56:29.606Z,20.02
2022-08-14T02:57:16.442Z,19.97
2022-08-14T02:58:09.720Z,19.97
2022-08-14T02:59:09.670Z,20.00
2022-08-14T03:00:10.156Z,20.00
2022-08-14T03:01:09.649Z,20.00
2022-08-14T03:02:09.543Z,19.97
2022-08-14T03:03:09.619Z,19.97
2022-08-14T03:04:09.420Z,20.00
2022-08-14T03:05:09.369Z,19.98
2022-08-14T03:06:09.356Z,19.90
2022-08-14T03:07:09.269Z,19.94
2022-08-14T03:08:09.219Z,19.97
2022-08-14T03:09:09.169Z,19.88
2022-08-14T03:10:26.252Z,19.90
2022-08-14T03:11:09.074Z,19.93
2022-08-14T03:12:09.019Z,19.91
2022-08-14T03:13:19.624Z,19.93
2022-08-14T03:14:08.922Z,19.90
2022-08-14T03:15:13.766Z,19.90
2022-08-14T03:16:09.336Z,19.93
2022-08-14T03:17:08.771Z,19.83
2022-08-14T03:18:08.721Z,19.83
2022-08-14T03:19:08.670Z,19.88
2022-08-14T03:20:11.097Z,19.83
2022-08-14T03:21:08.568Z,19.87
2022-08-14T03:22:09.387Z,19.80
2022-08-14T03:23:08.484Z,19.73
2022-08-14T03:24:08.423Z,19.75
2022-08-14T03:25:08.370Z,19.76
2022-08-14T03:26:08.340Z,19.83
2022-08-14T03:27:08.268Z,19.76
2022-08-14T03:28:08.219Z,19.76
2022-08-14T03:29:08.169Z,19.70
2022-08-14T03:30:14.443Z,19.73
2022-08-14T03:31:08.334Z,19.83
2022-08-14T03:32:08.036Z,19.78
2022-08-14T03:33:07.970Z,19.78
2022-08-14T03:34:10.167Z,19.70
2022-08-14T03:35:08.758Z,19.75
2022-08-14T03:37:28.599Z,19.70
2022-08-14T03:37:51.893Z,19.68
2022-08-14T03:39:09.595Z,19.76
2022-08-14T03:39:14.676Z,19.66
2022-08-14T03:40:11.389Z,19.63
2022-08-14T03:41:07.569Z,19.66
2022-08-14T03:42:19.359Z,19.53
2022-08-14T03:43:07.473Z,19.54
2022-08-14T03:45:18.578Z,19.58
2022-08-14T03:45:26.345Z,19.55
2022-08-14T03:46:10.181Z,19.50
2022-08-14T03:47:07.270Z,19.55
2022-08-14T03:48:11.040Z,19.50
2022-08-14T03:49:07.165Z,19.50
2022-08-14T03:50:07.117Z,19.54
2022-08-14T03:51:07.064Z,19.51
2022-08-14T03:52:17.954Z,19.50
2022-08-14T03:53:06.963Z,19.50
2022-08-14T03:54:07.471Z,19.43
2022-08-14T03:55:06.863Z,19.46
2022-08-14T03:56:06.817Z,19.42
2022-08-14T03:57:06.768Z,19.35
2022-08-14T03:58:06.717Z,19.42
2022-08-14T03:59:06.664Z,19.39
2022-08-14T04:00:06.616Z,19.35
2022-08-14T04:01:06.700Z,19.46
2022-08-14T04:02:31.801Z,19.47
2022-08-14T04:03:06.658Z,19.40
2022-08-14T04:04:07.913Z,19.40
2022-08-14T04:05:12.113Z,19.47
2022-08-14T04:06:06.313Z,19.32
2022-08-14T04:07:06.260Z,19.35
2022-08-14T04:08:22.655Z,19.40
2022-08-14T04:09:06.159Z,19.36
2022-08-14T04:10:06.111Z,19.29
2022-08-14T04:11:08.039Z,19.39
2022-08-14T04:12:06.378Z,19.39
2022-08-14T04:13:05.959Z,19.35
2022-08-14T04:14:05.908Z,19.33
2022-08-14T04:15:05.858Z,19.38
2022-08-14T04:16:10.024Z,19.35
2022-08-14T04:17:05.758Z,19.32
2022-08-14T04:18:05.707Z,19.28
2022-08-14T04:19:05.656Z,19.24
2022-08-14T04:20:05.610Z,19.24
2022-08-14T04:21:05.559Z,19.24
2022-08-14T04:22:05.506Z,19.25
2022-08-14T04:23:05.457Z,19.28
2022-08-14T04:24:05.404Z,19.20
2022-08-14T04:25:05.379Z,19.28
2022-08-14T04:26:08.201Z,19.14
2022-08-14T04:27:05.254Z,19.29
2022-08-14T04:28:05.202Z,19.20
2022-08-14T04:29:14.614Z,19.21
2022-08-14T04:30:05.509Z,19.20
2022-08-14T04:31:05.052Z,19.20
2022-08-14T04:32:58.331Z,19.24
2022-08-14T04:33:12.164Z,19.18
2022-08-14T04:34:05.128Z,19.25
2022-08-14T04:35:07.736Z,19.14
2022-08-14T04:36:04.798Z,19.17
2022-08-14T04:37:04.750Z,19.24
2022-08-14T04:38:07.751Z,19.15
2022-08-14T04:39:04.649Z,19.10
2022-08-14T04:40:04.771Z,19.20
2022-08-14T04:41:04.550Z,19.17
2022-08-14T04:42:07.130Z,19.15
2022-08-14T04:43:04.450Z,19.18
2022-08-14T04:44:04.394Z,19.05
2022-08-14T04:45:04.347Z,19.11
2022-08-14T04:46:04.293Z,19.10
2022-08-14T04:47:04.245Z,19.18
2022-08-14T04:48:04.192Z,19.18
2022-08-14T04:49:04.149Z,19.17
2022-08-14T04:50:04.176Z,19.15
2022-08-14T04:51:04.042Z,19.11
2022-08-14T04:52:03.989Z,19.13
2022-08-14T04:53:03.941Z,19.15
2022-08-14T04:54:03.896Z,19.15
2022-08-14T04:55:03.841Z,18.99
2022-08-14T04:56:03.788Z,19.15
2022-08-14T04:57:03.739Z,19.18
2022-08-14T04:58:03.689Z,19.14
2022-08-14T04:59:03.820Z,19.14
2022-08-14T05:00:03.586Z,19.08
2022-08-14T05:01:03.554Z,19.05
2022-08-14T05:02:03.510Z,19.05
2022-08-14T05:03:03.435Z,19.06
2022-08-14T05:04:03.384Z,19.13
2022-08-14T05:05:03.337Z,19.05
2022-08-14T05:06:03.323Z,19.01
2022-08-14T05:07:03.233Z,19.11
2022-08-14T05:08:03.182Z,19.08
2022-08-14T05:09:35.106Z,19.08
2022-08-14T05:10:12.651Z,19.08
2022-08-14T05:11:03.029Z,19.06
2022-08-14T05:13:11.675Z,19.02
2022-08-14T05:13:13.996Z,19.02
2022-08-14T05:14:16.795Z,19.17
2022-08-14T05:15:02.826Z,19.14
2022-08-14T05:16:02.789Z,19.06
2022-08-14T05:17:02.724Z,19.10
2022-08-14T05:18:17.290Z,19.06
2022-08-14T05:19:24.785Z,19.17
2022-08-14T05:21:54.069Z,19.08
2022-08-14T05:21:59.350Z,19.14
2022-08-14T05:22:16.581Z,19.10
2022-08-14T05:23:02.425Z,19.13
2022-08-14T05:24:02.372Z,19.18
2022-08-14T05:25:02.329Z,19.14
2022-08-14T05:26:02.270Z,19.25
2022-08-14T05:27:02.228Z,19.20
2022-08-14T05:28:02.169Z,19.29
2022-08-14T05:29:02.117Z,19.18
2022-08-14T05:30:02.069Z,19.18
2022-08-14T05:31:02.015Z,19.29
2022-08-14T05:32:01.966Z,19.23
2022-08-14T05:33:01.915Z,19.24
2022-08-14T05:34:01.867Z,19.31
2022-08-14T05:35:01.815Z,19.25
2022-08-14T05:36:01.766Z,19.33
2022-08-14T05:37:02.877Z,19.33
2022-08-14T05:38:01.663Z,19.25
2022-08-14T05:39:01.613Z,19.35
2022-08-14T05:40:01.582Z,19.36
2022-08-14T05:41:01.515Z,19.33
2022-08-14T05:42:01.459Z,19.40
2022-08-14T05:43:01.415Z,19.35
2022-08-14T05:44:01.357Z,19.35
2022-08-14T05:45:01.305Z,19.36
2022-08-14T05:46:01.717Z,19.40
2022-08-14T05:47:01.206Z,19.39
2022-08-14T05:48:01.155Z,19.40
2022-08-14T05:49:01.103Z,19.36
2022-08-14T05:50:01.054Z,19.48
2022-08-14T05:51:01.684Z,19.47
2022-08-14T05:52:01.583Z,19.42
2022-08-14T05:53:00.902Z,19.51
2022-08-14T05:54:13.539Z,19.48
2022-08-14T05:55:00.799Z,19.50
2022-08-14T05:56:00.752Z,19.51
2022-08-14T05:57:00.697Z,19.47
2022-08-14T05:58:00.649Z,19.50
2022-08-14T05:59:00.809Z,19.54
2022-08-14T06:00:00.549Z,19.57
2022-08-14T06:01:00.507Z,19.65
2022-08-14T06:02:00.475Z,19.65
2022-08-14T06:03:00.572Z,19.66
2022-08-14T06:04:00.359Z,19.66
2022-08-14T06:05:00.292Z,19.70
2022-08-14T06:06:00.244Z,19.70
2022-08-14T06:07:00.191Z,19.68
2022-08-14T06:08:00.142Z,19.66
2022-08-14T06:09:00.090Z,19.70
2022-08-14T06:10:03.788Z,19.76
2022-08-14T06:10:59.991Z,19.70
2022-08-14T06:11:59.939Z,19.72
2022-08-14T06:12:59.892Z,19.78
2022-08-14T06:13:59.839Z,19.76
2022-08-14T06:14:59.788Z,19.80
2022-08-14T06:15:59.739Z,19.78
2022-08-14T06:16:59.687Z,19.80
2022-08-14T06:18:00.509Z,19.93
2022-08-14T06:18:59.694Z,19.94
2022-08-14T06:20:35.367Z,19.94
2022-08-14T06:20:59.485Z,19.94
2022-08-14T06:21:59.720Z,19.90
2022-08-14T06:22:59.384Z,19.87
2022-08-14T06:23:59.542Z,19.91
2022-08-14T06:24:59.284Z,19.98
2022-08-14T06:25:59.234Z,19.94
2022-08-14T06:27:04.432Z,20.05
2022-08-14T06:28:02.075Z,20.02
2022-08-14T06:28:59.082Z,20.00
2022-08-14T06:29:59.030Z,20.00
2022-08-14T06:30:58.980Z,20.10
2022-08-14T06:32:00.668Z,20.06
2022-08-14T06:32:58.879Z,20.03
2022-08-14T06:35:03.716Z,20.13
2022-08-14T06:35:10.185Z,20.08
2022-08-14T06:35:58.734Z,20.06
2022-08-14T06:36:58.677Z,20.10
2022-08-14T06:37:58.627Z,20.16
2022-08-14T06:38:58.577Z,20.16
2022-08-14T06:39:58.552Z,20.16
2022-08-14T06:40:58.477Z,20.23
2022-08-14T06:41:59.728Z,20.21
2022-08-14T06:43:00.311Z,20.13
2022-08-14T06:43:58.374Z,20.27
2022-08-14T06:44:58.394Z,20.31
2022-08-14T06:45:58.222Z,20.33
2022-08-14T06:46:58.178Z,20.28
2022-08-14T06:47:58.615Z,20.16
2022-08-14T06:48:58.114Z,20.30
2022-08-14T06:49:58.436Z,20.38
2022-08-14T06:50:58.185Z,20.35
2022-08-14T06:51:57.932Z,20.39
2022-08-14T06:52:57.878Z,20.39
2022-08-14T06:53:57.832Z,20.28
2022-08-14T06:54:57.774Z,20.33
2022-08-14T06:56:00.622Z,20.38
2022-08-14T06:56:57.670Z,20.42
2022-08-14T06:57:58.139Z,20.38
2022-08-14T06:58:57.571Z,20.41
2022-08-14T06:59:57.518Z,20.41
2022-08-14T07:00:57.496Z,20.50
2022-08-14T07:01:57.439Z,20.49
2022-08-14T07:02:57.372Z,20.54
2022-08-14T07:03:57.317Z,20.51
2022-08-14T07:04:57.268Z,20.47
2022-08-14T07:05:58.428Z,20.53
2022-08-14T07:06:59.512Z,20.58
2022-08-14T07:07:57.115Z,20.58
2022-08-14T07:08:57.070Z,20.59
2022-08-14T07:09:57.015Z,20.64
2022-08-14T07:10:56.972Z,20.62
2022-08-14T07:11:57.889Z,20.59
2022-08-14T07:13:03.568Z,20.62
2022-08-14T07:13:56.814Z,20.64
2022-08-14T07:15:01.285Z,20.68
2022-08-14T07:15:56.714Z,20.62
2022-08-14T07:16:56.666Z,20.71
2022-08-14T07:17:57.176Z,20.74
2022-08-14T07:18:56.565Z,20.68
2022-08-14T07:19:56.512Z,20.79
2022-08-14T07:20:56.465Z,20.76
2022-08-14T07:21:56.422Z,20.79
2022-08-14T07:22:57.208Z,20.86
2022-08-14T07:23:56.318Z,20.84
2022-08-14T07:24:56.265Z,20.81
2022-08-14T07:25:56.492Z,20.79
2022-08-14T07:26:56.173Z,20.83
2022-08-14T07:27:56.114Z,20.74
2022-08-14T07:28:56.072Z,20.86
2022-08-14T07:30:02.963Z,20.83
2022-08-14T07:30:55.966Z,20.93
2022-08-14T07:31:55.914Z,20.86
2022-08-14T07:32:55.865Z,20.89
2022-08-14T07:33:55.814Z,20.87
2022-08-14T07:34:55.764Z,20.91
2022-08-14T07:35:58.754Z,20.96
2022-08-14T07:37:00.664Z,20.98
2022-08-14T07:37:55.618Z,21.02
2022-08-14T07:38:56.095Z,20.98
2022-08-14T07:39:55.575Z,21.02
2022-08-14T07:40:55.584Z,21.13
2022-08-14T07:41:55.413Z,21.02
2022-08-14T07:42:55.371Z,21.06
2022-08-14T07:43:57.630Z,21.05
2022-08-14T07:44:55.270Z,21.11
2022-08-14T07:45:55.220Z,21.16
2022-08-14T07:46:55.165Z,21.17
2022-08-14T07:47:55.113Z,21.13
2022-08-14T07:48:55.065Z,21.27
2022-08-14T07:49:55.392Z,21.16
2022-08-14T07:51:00.721Z,21.21
2022-08-14T07:51:54.914Z,21.34
2022-08-14T07:52:54.865Z,21.29
2022-08-14T07:53:56.801Z,21.29
2022-08-14T07:54:54.770Z,21.41
2022-08-14T07:56:08.818Z,21.41
2022-08-14T07:56:56.716Z,21.39
2022-08-14T07:57:54.613Z,21.50
2022-08-14T07:58:54.569Z,21.45
2022-08-14T07:59:54.515Z,21.56
2022-08-14T08:00:56.882Z,21.57
2022-08-14T08:01:54.415Z,21.59
2022-08-14T08:02:56.972Z,21.63
2022-08-14T08:03:59.472Z,21.72
2022-08-14T08:04:58.745Z,21.67
2022-08-14T08:05:54.216Z,21.67
2022-08-14T08:06:54.169Z,21.79
2022-08-14T08:07:54.120Z,21.75
2022-08-14T08:09:01.087Z,21.76
2022-08-14T08:09:54.026Z,21.78
2022-08-14T08:11:02.126Z,21.81
2022-08-14T08:11:54.295Z,21.79
2022-08-14T08:12:53.871Z,21.81
2022-08-14T08:13:54.586Z,21.90
2022-08-14T08:14:56.317Z,21.91
2022-08-14T08:15:53.720Z,21.90
2022-08-14T08:16:53.673Z,21.85
2022-08-14T08:18:01.430Z,21.85
2022-08-14T08:18:58.702Z,21.94
2022-08-14T08:19:53.523Z,21.94
2022-08-14T08:20:53.653Z,21.99
2022-08-14T08:21:53.422Z,22.02
2022-08-14T08:22:56.042Z,22.10
2022-08-14T08:23:53.323Z,22.09
2022-08-14T08:24:53.275Z,22.12
2022-08-14T08:25:53.225Z,22.14
2022-08-14T08:26:53.188Z,22.16
2022-08-14T08:27:53.126Z,22.20
2022-08-14T08:28:53.077Z,22.16
2022-08-14T08:29:53.028Z,22.29
2022-08-14T08:30:52.979Z,22.34
2022-08-14T08:31:52.929Z,22.22
2022-08-14T08:32:52.889Z,22.28
2022-08-14T08:33:52.830Z,22.35
2022-08-14T08:34:52.782Z,22.38
2022-08-14T08:35:52.730Z,22.39
2022-08-14T08:36:52.763Z,22.35
2022-08-14T08:38:01.051Z,22.39
2022-08-14T08:39:18.097Z,22.50
2022-08-14T08:40:01.913Z,22.53
2022-08-14T08:40:52.548Z,22.52
2022-08-14T08:41:53.510Z,22.59
2022-08-14T08:42:53.079Z,22.59
2022-08-14T08:43:52.621Z,22.53
2022-08-14T08:44:52.287Z,22.68
2022-08-14T08:45:52.238Z,22.65
2022-08-14T08:46:52.187Z,22.64
2022-08-14T08:47:52.140Z,22.75
2022-08-14T08:48:53.949Z,22.72
2022-08-14T08:49:59.040Z,22.67
2022-08-14T08:50:51.990Z,22.72
2022-08-14T08:51:51.947Z,22.71
2022-08-14T08:52:51.895Z,22.80
2022-08-14T08:53:51.844Z,22.86
2022-08-14T08:54:51.801Z,22.83
2022-08-14T08:55:51.747Z,22.84
2022-08-14T08:56:52.164Z,22.84
2022-08-14T08:57:51.651Z,22.97
2022-08-14T08:58:51.599Z,22.94
2022-08-14T08:59:55.134Z,22.93
2022-08-14T09:00:54.431Z,23.01
2022-08-14T09:01:51.574Z,22.97
2022-08-14T09:02:51.416Z,23.01
2022-08-14T09:03:51.358Z,23.04
2022-08-14T09:04:53.163Z,23.09
2022-08-14T09:05:51.254Z,23.11
2022-08-14T09:07:00.863Z,23.07
2022-08-14T09:07:51.157Z,23.15
2022-08-14T09:08:51.110Z,23.17
2022-08-14T09:09:56.936Z,23.11
2022-08-14T09:10:55.948Z,23.15
2022-08-14T09:11:50.964Z,23.26
2022-08-14T09:12:51.672Z,23.27
2022-08-14T09:13:50.865Z,23.31
2022-08-14T09:14:50.813Z,23.29
2022-08-14T09:15:50.768Z,23.24
2022-08-14T09:16:50.715Z,23.38
2022-08-14T09:17:50.671Z,23.39
2022-08-14T09:18:50.617Z,23.29
2022-08-14T09:19:50.585Z,23.43
2022-08-14T09:20:50.519Z,23.39
2022-08-14T09:21:50.472Z,23.38
2022-08-14T09:22:50.633Z,23.45
2022-08-14T09:24:28.183Z,23.47
2022-08-14T09:24:50.324Z,23.50
2022-08-14T09:25:59.675Z,23.49
2022-08-14T09:26:50.229Z,23.50
2022-08-14T09:27:50.182Z,23.55
2022-08-14T09:28:50.128Z,23.61
2022-08-14T09:29:54.373Z,23.65
2022-08-14T09:30:50.034Z,23.64
2022-08-14T09:31:53.258Z,23.62
2022-08-14T09:32:59.513Z,23.62
2022-08-14T09:33:56.468Z,23.58
2022-08-14T09:34:58.045Z,23.64
2022-08-14T09:35:49.789Z,23.67
2022-08-14T09:36:49.740Z,23.65
2022-08-14T09:37:49.704Z,23.68
2022-08-14T09:38:49.645Z,23.77
2022-08-14T09:39:49.663Z,23.80
2022-08-14T09:40:49.544Z,23.76
2022-08-14T09:42:21.004Z,23.90
2022-08-14T09:42:50.193Z,23.87
2022-08-14T09:43:49.434Z,23.92
2022-08-14T09:44:49.656Z,23.90
2022-08-14T09:45:52.848Z,23.89
2022-08-14T09:46:49.747Z,23.90
2022-08-14T09:47:51.801Z,23.97
2022-08-14T09:48:49.156Z,23.98
2022-08-14T09:49:53.245Z,23.97
2022-08-14T09:50:49.061Z,23.98
2022-08-14T09:51:58.313Z,24.04
2022-08-14T09:52:54.126Z,24.02
2022-08-14T09:54:19.429Z,24.05
2022-08-14T09:54:48.866Z,24.08
2022-08-14T09:55:48.818Z,24.08
2022-08-14T09:56:56.840Z,24.10
2022-08-14T09:57:48.767Z,24.08
2022-08-14T09:58:48.675Z,24.05
2022-08-14T09:59:50.348Z,24.16
2022-08-14T10:00:48.574Z,24.19
2022-08-14T10:01:52.468Z,24.24
2022-08-14T10:02:48.594Z,24.19
2022-08-14T10:03:48.430Z,24.19
2022-08-14T10:04:50.135Z,24.27
2022-08-14T10:05:48.335Z,24.29
2022-08-14T10:06:48.287Z,24.26
2022-08-14T10:07:48.238Z,24.34
2022-08-14T10:08:51.062Z,24.27
2022-08-14T10:09:57.566Z,24.23
2022-08-14T10:10:53.321Z,24.34
2022-08-14T10:11:48.045Z,24.32
2022-08-14T10:12:48.011Z,24.38
2022-08-14T10:13:53.412Z,24.41
2022-08-14T10:14:53.424Z,24.41
2022-08-14T10:15:47.851Z,24.44
2022-08-14T10:16:47.802Z,24.45
2022-08-14T10:17:47.757Z,24.49
2022-08-14T10:18:56.050Z,24.52
2022-08-14T10:19:47.660Z,24.54
2022-08-14T10:20:49.946Z,24.54
2022-08-14T10:23:10.976Z,24.60
2022-08-14T10:23:12.810Z,24.56
2022-08-14T10:23:47.465Z,24.67
2022-08-14T10:24:50.995Z,24.61
2022-08-14T10:25:47.370Z,24.57
2022-08-14T10:26:47.321Z,24.75
2022-08-14T10:27:47.275Z,24.69
2022-08-14T10:29:11.254Z,24.67
2022-08-14T10:29:47.179Z,24.69
2022-08-14T10:30:47.135Z,24.83
2022-08-14T10:31:47.108Z,24.77
2022-08-14T10:32:49.652Z,24.82
2022-08-14T10:33:50.881Z,24.85
2022-08-14T10:34:46.961Z,24.77
2022-08-14T10:35:48.170Z,24.87
2022-08-14T10:36:47.994Z,24.91
2022-08-14T10:37:46.820Z,24.88
2022-08-14T10:38:51.829Z,24.90
2022-08-14T10:39:51.296Z,24.85
2022-08-14T10:40:52.215Z,24.98
2022-08-14T10:41:49.338Z,25.01
2022-08-14T10:42:46.695Z,25.00
2022-08-14T10:43:46.508Z,25.02
2022-08-14T10:44:46.457Z,25.06
2022-08-14T10:45:51.936Z,25.01
2022-08-14T10:47:39.943Z,25.05
2022-08-14T10:48:09.480Z,25.06
2022-08-14T10:48:46.410Z,25.01
2022-08-14T10:49:46.219Z,25.02
2022-08-14T10:50:46.594Z,25.07
2022-08-14T10:51:46.123Z,25.17
2022-08-14T10:52:46.182Z,25.12
2022-08-14T10:53:46.028Z,25.09
2022-08-14T10:54:47.526Z,25.19
2022-08-14T10:55:46.100Z,25.16
2022-08-14T10:56:45.894Z,25.19
2022-08-14T10:57:45.838Z,25.15
2022-08-14T10:58:45.795Z,25.19
2022-08-14T10:59:45.743Z,25.25
2022-08-14T11:00:47.021Z,25.17
2022-08-14T11:01:45.649Z,25.17
2022-08-14T11:02:54.059Z,25.20
2022-08-14T11:03:56.117Z,25.19
2022-08-14T11:04:45.543Z,25.19
2022-08-14T11:05:45.458Z,25.31
2022-08-14T11:06:45.407Z,25.37
2022-08-14T11:07:45.360Z,25.35
2022-08-14T11:08:45.740Z,25.37
2022-08-14T11:09:45.280Z,25.42
2022-08-14T11:10:45.222Z,25.35
2022-08-14T11:11:45.178Z,25.42
2022-08-14T11:12:45.196Z,25.32
2022-08-14T11:13:45.085Z,25.43
2022-08-14T11:14:45.027Z,25.46
2022-08-14T11:15:44.982Z,25.46
2022-08-14T11:16:53.352Z,25.46
2022-08-14T11:17:45.995Z,25.53
2022-08-14T11:18:44.845Z,25.53
2022-08-14T11:19:44.792Z,25.47
2022-08-14T11:20:44.743Z,25.57
2022-08-14T11:21:46.484Z,25.56
2022-08-14T11:22:52.340Z,25.52
2022-08-14T11:23:44.602Z,25.59
2022-08-14T11:24:54.050Z,25.61
2022-08-14T11:25:53.209Z,25.62
2022-08-14T11:26:44.458Z,25.64
2022-08-14T11:27:44.411Z,25.64
2022-08-14T11:28:47.210Z,25.59
2022-08-14T11:29:44.319Z,25.57
2022-08-14T11:30:50.849Z,25.68
2022-08-14T11:31:44.224Z,25.69
2022-08-14T11:32:44.250Z,25.74
2022-08-14T11:33:44.130Z,25.72
2022-08-14T11:34:44.082Z,25.71
2022-08-14T11:35:48.279Z,25.75
2022-08-14T11:37:09.288Z,25.82
2022-08-14T11:37:43.938Z,25.83
2022-08-14T11:38:44.931Z,25.75
2022-08-14T11:39:45.479Z,25.84
2022-08-14T11:40:43.798Z,25.94
2022-08-14T11:41:55.599Z,25.93
2022-08-14T11:42:57.729Z,25.93
2022-08-14T11:43:46.861Z,25.99
2022-08-14T11:44:45.297Z,25.97
2022-08-14T11:45:43.562Z,26.01
2022-08-14T11:46:43.515Z,26.09
2022-08-14T11:47:44.147Z,26.01
2022-08-14T11:49:01.910Z,26.02
2022-08-14T11:49:43.375Z,26.04
2022-08-14T11:50:43.404Z,26.02
2022-08-14T11:51:53.662Z,26.08
2022-08-14T11:52:43.230Z,26.08
2022-08-14T11:53:43.184Z,26.08
2022-08-14T11:54:43.136Z,26.04
2022-08-14T11:55:43.090Z,26.06
2022-08-14T11:56:43.042Z,26.08
2022-08-14T11:57:42.999Z,26.17
2022-08-14T11:58:42.960Z,26.18
2022-08-14T11:59:44.160Z,26.27
2022-08-14T12:00:46.129Z,26.15
2022-08-14T12:01:42.821Z,26.25
2022-08-14T12:03:02.548Z,26.20
2022-08-14T12:03:52.440Z,26.12
2022-08-14T12:04:42.684Z,26.17
2022-08-14T12:05:42.623Z,26.15
2022-08-14T12:06:42.572Z,26.15
2022-08-14T12:07:42.961Z,26.21
2022-08-14T12:08:42.477Z,26.27
2022-08-14T12:09:42.883Z,26.22
2022-08-14T12:10:43.210Z,26.29
2022-08-14T12:11:43.726Z,26.27
2022-08-14T12:12:42.330Z,26.20
2022-08-14T12:13:44.249Z,26.28
2022-08-14T12:14:44.359Z,26.28
2022-08-14T12:15:44.585Z,26.28
2022-08-14T12:16:42.106Z,26.36
2022-08-14T12:17:47.766Z,26.35
2022-08-14T12:18:42.009Z,26.32
2022-08-14T12:19:41.965Z,26.35
2022-08-14T12:20:45.586Z,26.42
2022-08-14T12:21:45.338Z,26.32
2022-08-14T12:22:42.299Z,26.50
2022-08-14T12:23:41.776Z,26.46
2022-08-14T12:24:41.728Z,26.50
2022-08-14T12:25:41.683Z,26.47
2022-08-14T12:26:41.636Z,26.50
2022-08-14T12:27:53.497Z,26.57
2022-08-14T12:29:00.104Z,26.50
2022-08-14T12:29:41.501Z,26.49
2022-08-14T12:30:43.300Z,26.52
2022-08-14T12:31:44.853Z,26.49
2022-08-14T12:32:41.354Z,26.57
2022-08-14T12:33:47.095Z,26.47
2022-08-14T12:34:41.262Z,26.43
2022-08-14T12:35:41.215Z,26.44
2022-08-14T12:36:41.166Z,26.46
2022-08-14T12:37:41.123Z,26.46
2022-08-14T12:38:41.075Z,26.40
2022-08-14T12:39:41.178Z,26.37
2022-08-14T12:40:40.980Z,26.28
2022-08-14T12:41:40.937Z,26.37
2022-08-14T12:42:52.591Z,26.28
2022-08-14T12:43:40.843Z,26.28
2022-08-14T12:44:40.798Z,26.25
2022-08-14T12:45:40.749Z,26.24
2022-08-14T12:46:40.702Z,26.17
2022-08-14T12:47:40.725Z,26.24
2022-08-14T12:48:40.609Z,26.22
2022-08-14T12:49:40.564Z,26.05
2022-08-14T12:50:40.515Z,26.17
2022-08-14T12:51:42.721Z,26.21